sensor_id;sensor_type;location;lat;lon;timestamp;pressure;altitude;pressure_sealevel;temperature;humidity
24306;BME280;12423;48.768;8.850;2023-02-18T00:01:13;97878.94;;;11.09;100.00
24306;BME280;12423;48.768;8.850;2023-02-18T00:03:15;97873.59;;;11.09;100.00
24306;BME280;12423;48.768;8.850;2023-02-18T00:05:16;97877.22;;;11.08;100.00
24306;BME280;12423;48.768;8.850;2023-02-18T00:07:17;97863.84;;;11.08;100.00
24306;BME280;12423;48.768;8.850;2023-02-18T00:09:17;97878.22;;;11.07;100.00
24306;BME280;12423;48.768;8.850;2023-02-18T00:11:20;97876.53;;;11.17;100.00
24306;BME280;12423;48.768;8.850;2023-02-18T00:13:21;97867.53;;;11.18;100.00
24306;BME280;12423;48.768;8.850;2023-02-18T00:15:22;97879.38;;;11.27;100.00
24306;BME280;12423;48.768;8.850;2023-02-18T00:17:23;97859.56;;;11.30;100.00
24306;BME280;12423;48.768;8.850;2023-02-18T00:19:24;97866.72;;;11.29;100.00
24306;BME280;12423;48.768;8.850;2023-02-18T00:21:26;97880.22;;;11.28;100.00
24306;BME280;12423;48.768;8.850;2023-02-18T00:23:27;97857.34;;;11.23;100.00
24306;BME280;12423;48.768;8.850;2023-02-18T00:25:28;97869.53;;;11.28;100.00
24306;BME280;12423;48.768;8.850;2023-02-18T00:27:29;97875.81;;;11.27;100.00
24306;BME280;12423;48.768;8.850;2023-02-18T00:29:31;97871.47;;;11.25;100.00
24306;BME280;12423;48.768;8.850;2023-02-18T00:31:34;97882.91;;;11.28;100.00
24306;BME280;12423;48.768;8.850;2023-02-18T00:33:36;97889.31;;;11.25;100.00
24306;BME280;12423;48.768;8.850;2023-02-18T00:35:37;97881.41;;;11.23;100.00
24306;BME280;12423;48.768;8.850;2023-02-18T00:37:38;97872.19;;;11.28;100.00
24306;BME280;12423;48.768;8.850;2023-02-18T00:39:39;97877.31;;;11.31;100.00
24306;BME280;12423;48.768;8.850;2023-02-18T00:41:40;97870.47;;;11.27;100.00
24306;BME280;12423;48.768;8.850;2023-02-18T00:43:42;97871.69;;;11.22;100.00
24306;BME280;12423;48.768;8.850;2023-02-18T00:45:43;97869.25;;;11.19;100.00
24306;BME280;12423;48.768;8.850;2023-02-18T00:47:44;97861.34;;;11.18;100.00
24306;BME280;12423;48.768;8.850;2023-02-18T00:49:45;97915.44;;;11.21;100.00
24306;BME280;12423;48.768;8.850;2023-02-18T00:51:46;97872.41;;;11.24;100.00
24306;BME280;12423;48.768;8.850;2023-02-18T00:53:48;97870.19;;;11.18;100.00
24306;BME280;12423;48.768;8.850;2023-02-18T00:55:49;97868.53;;;11.17;100.00
24306;BME280;12423;48.768;8.850;2023-02-18T00:57:50;97871.41;;;11.14;100.00
24306;BME280;12423;48.768;8.850;2023-02-18T00:59:51;97867.25;;;11.10;100.00
24306;BME280;12423;48.768;8.850;2023-02-18T01:01:52;97875.06;;;11.13;100.00
24306;BME280;12423;48.768;8.850;2023-02-18T01:03:54;97874.09;;;11.14;100.00
24306;BME280;12423;48.768;8.850;2023-02-18T01:05:56;97878.94;;;11.09;100.00
24306;BME280;12423;48.768;8.850;2023-02-18T01:07:57;97877.22;;;11.08;100.00
24306;BME280;12423;48.768;8.850;2023-02-18T01:09:58;97877.22;;;11.08;100.00
24306;BME280;12423;48.768;8.850;2023-02-18T01:11:59;97872.56;;;10.99;100.00
24306;BME280;12423;48.768;8.850;2023-02-18T01:14:00;97868.47;;;11.06;100.00
24306;BME280;12423;48.768;8.850;2023-02-18T01:16:03;97876.44;;;10.95;100.00
24306;BME280;12423;48.768;8.850;2023-02-18T01:18:04;97881.28;;;10.90;100.00
24306;BME280;12423;48.768;8.850;2023-02-18T01:20:09;97871.53;;;10.88;100.00
24306;BME280;12423;48.768;8.850;2023-02-18T01:22:10;97858.66;;;10.82;100.00
24306;BME280;12423;48.768;8.850;2023-02-18T01:24:11;97856.72;;;10.84;100.00
24306;BME280;12423;48.768;8.850;2023-02-18T01:26:12;97855.09;;;10.82;100.00
24306;BME280;12423;48.768;8.850;2023-02-18T01:28:14;97858.66;;;10.82;100.00
24306;BME280;12423;48.768;8.850;2023-02-18T01:30:16;97854.47;;;10.78;100.00
24306;BME280;12423;48.768;8.850;2023-02-18T01:32:19;97857.16;;;10.78;100.00
24306;BME280;12423;48.768;8.850;2023-02-18T01:34:20;97860.16;;;10.74;100.00
24306;BME280;12423;48.768;8.850;2023-02-18T01:36:21;97850.34;;;10.74;100.00
24306;BME280;12423;48.768;8.850;2023-02-18T01:38:22;97848.84;;;10.70;100.00
24306;BME280;12423;48.768;8.850;2023-02-18T01:40:25;97846.41;;;10.67;100.00
24306;BME280;12423;48.768;8.850;2023-02-18T01:42:28;97835.25;;;10.73;100.00
24306;BME280;12423;48.768;8.850;2023-02-18T01:44:33;97852.84;;;10.64;100.00
24306;BME280;12423;48.768;8.850;2023-02-18T01:46:34;97853.69;;;10.65;100.00
24306;BME280;12423;48.768;8.850;2023-02-18T01:51:04;97841.56;;;10.72;100.00
24306;BME280;12423;48.768;8.850;2023-02-18T01:53:07;97837.44;;;10.68;100.00
24306;BME280;12423;48.768;8.850;2023-02-18T01:55:08;97828.19;;;10.72;100.00
24306;BME280;12423;48.768;8.850;2023-02-18T01:57:12;97824.78;;;10.70;100.00
24306;BME280;12423;48.768;8.850;2023-02-18T01:59:17;97830.88;;;10.72;100.00
24306;BME280;12423;48.768;8.850;2023-02-18T02:01:21;97831.97;;;10.69;100.00
24306;BME280;12423;48.768;8.850;2023-02-18T02:03:22;97825.03;;;10.67;100.00
24306;BME280;12423;48.768;8.850;2023-02-18T02:05:23;97814.91;;;10.59;100.00
24306;BME280;12423;48.768;8.850;2023-02-18T02:07:25;97820.13;;;10.61;100.00
24306;BME280;12423;48.768;8.850;2023-02-18T02:09:30;97820.25;;;10.59;100.00
24306;BME280;12423;48.768;8.850;2023-02-18T02:12:04;97810.03;;;10.53;100.00
24306;BME280;12423;48.768;8.850;2023-02-18T02:14:10;97819.09;;;10.50;100.00
24306;BME280;12423;48.768;8.850;2023-02-18T02:16:27;97826.38;;;10.48;100.00
24306;BME280;12423;48.768;8.850;2023-02-18T02:21:23;97826.38;;;10.48;100.00
24306;BME280;12423;48.768;8.850;2023-02-18T02:36:01;97809.03;;;10.54;100.00
24306;BME280;12423;48.768;8.850;2023-02-18T02:38:09;97809.19;;;10.53;100.00
24306;BME280;12423;48.768;8.850;2023-02-18T02:40:33;97807.25;;;10.55;100.00
24306;BME280;12423;48.768;8.850;2023-02-18T02:47:50;97807.69;;;10.48;100.00
24306;BME280;12423;48.768;8.850;2023-02-18T02:50:00;97799.22;;;10.55;100.00
24306;BME280;12423;48.768;8.850;2023-02-18T02:52:07;97799.66;;;10.48;100.00
24306;BME280;12423;48.768;8.850;2023-02-18T02:54:18;97796.88;;;10.50;100.00
24306;BME280;12423;48.768;8.850;2023-02-18T02:56:23;97803.06;;;10.50;100.00
24306;BME280;12423;48.768;8.850;2023-02-18T02:58:27;97794.69;;;10.68;100.00
24306;BME280;12423;48.768;8.850;2023-02-18T03:00:43;97789.72;;;10.75;100.00
24306;BME280;12423;48.768;8.850;2023-02-18T03:07:50;97797.28;;;10.57;100.00
24306;BME280;12423;48.768;8.850;2023-02-18T03:12:39;97782.22;;;10.56;100.00
24306;BME280;12423;48.768;8.850;2023-02-18T03:17:24;97785.13;;;10.53;100.00
24306;BME280;12423;48.768;8.850;2023-02-18T03:21:46;97777.16;;;10.64;100.00
24306;BME280;12423;48.768;8.850;2023-02-18T03:23:55;97772.50;;;10.55;100.00
24306;BME280;12423;48.768;8.850;2023-02-18T03:25:58;97765.34;;;10.55;100.00
24306;BME280;12423;48.768;8.850;2023-02-18T03:28:13;97755.88;;;10.51;100.00
24306;BME280;12423;48.768;8.850;2023-02-18T03:30:21;97761.44;;;10.48;100.00
24306;BME280;12423;48.768;8.850;2023-02-18T03:32:24;97760.56;;;10.47;100.00
24306;BME280;12423;48.768;8.850;2023-02-18T03:34:37;97761.03;;;10.41;100.00
24306;BME280;12423;48.768;8.850;2023-02-18T03:36:41;97757.03;;;10.47;100.00
24306;BME280;12423;48.768;8.850;2023-02-18T03:38:52;97757.44;;;10.54;100.00
24306;BME280;12423;48.768;8.850;2023-02-18T03:40:55;97760.81;;;10.44;100.00
24306;BME280;12423;48.768;8.850;2023-02-18T03:42:57;97759.38;;;10.51;100.00
24306;BME280;12423;48.768;8.850;2023-02-18T03:44:58;97761.09;;;10.53;100.00
24306;BME280;12423;48.768;8.850;2023-02-18T03:46:59;97758.94;;;10.69;100.00
24306;BME280;12423;48.768;8.850;2023-02-18T03:49:01;97759.44;;;10.63;100.00
24306;BME280;12423;48.768;8.850;2023-02-18T03:51:02;97763.06;;;10.62;100.00
24306;BME280;12423;48.768;8.850;2023-02-18T03:53:03;97761.34;;;10.61;100.00
24306;BME280;12423;48.768;8.850;2023-02-18T03:55:04;97770.41;;;10.71;100.00
24306;BME280;12423;48.768;8.850;2023-02-18T03:57:05;97766.50;;;10.75;100.00
24306;BME280;12423;48.768;8.850;2023-02-18T03:59:06;97771.84;;;10.75;100.00
24306;BME280;12423;48.768;8.850;2023-02-18T04:01:07;97757.03;;;10.71;100.00
24306;BME280;12423;48.768;8.850;2023-02-18T04:03:08;97757.78;;;10.49;100.00
24306;BME280;12423;48.768;8.850;2023-02-18T04:05:10;97764.44;;;10.43;100.00
24306;BME280;12423;48.768;8.850;2023-02-18T04:07:11;97766.94;;;10.33;100.00
24306;BME280;12423;48.768;8.850;2023-02-18T04:09:12;97756.34;;;10.32;100.00
24306;BME280;12423;48.768;8.850;2023-02-18T04:11:13;97761.47;;;10.35;100.00
24306;BME280;12423;48.768;8.850;2023-02-18T04:13:14;97758.81;;;10.35;100.00
24306;BME280;12423;48.768;8.850;2023-02-18T04:15:15;97754.72;;;10.42;100.00
24306;BME280;12423;48.768;8.850;2023-02-18T04:17:16;97752.03;;;10.29;100.00
24306;BME280;12423;48.768;8.850;2023-02-18T04:19:17;97759.66;;;10.23;100.00
24306;BME280;12423;48.768;8.850;2023-02-18T04:21:18;97760.44;;;10.25;100.00
24306;BME280;12423;48.768;8.850;2023-02-18T04:23:19;97759.94;;;10.31;100.00
24306;BME280;12423;48.768;8.850;2023-02-18T04:25:20;97757.97;;;10.22;100.00
24306;BME280;12423;48.768;8.850;2023-02-18T04:27:21;97749.06;;;10.34;100.00
24306;BME280;12423;48.768;8.850;2023-02-18T04:29:22;97747.28;;;10.22;100.00
24306;BME280;12423;48.768;8.850;2023-02-18T04:31:23;97743.69;;;10.47;100.00
24306;BME280;12423;48.768;8.850;2023-02-18T04:33:24;97746.63;;;10.55;100.00
24306;BME280;12423;48.768;8.850;2023-02-18T04:35:25;97749.03;;;10.47;100.00
24306;BME280;12423;48.768;8.850;2023-02-18T04:37:26;97745.63;;;10.45;100.00
24306;BME280;12423;48.768;8.850;2023-02-18T04:39:27;97754.38;;;10.47;100.00
24306;BME280;12423;48.768;8.850;2023-02-18T04:41:28;97759.38;;;10.51;100.00
24306;BME280;12423;48.768;8.850;2023-02-18T04:43:29;97747.97;;;10.49;100.00
24306;BME280;12423;48.768;8.850;2023-02-18T04:45:30;97756.72;;;10.51;100.00
24306;BME280;12423;48.768;8.850;2023-02-18T04:47:31;97751.19;;;10.42;100.00
24306;BME280;12423;48.768;8.850;2023-02-18T04:49:33;97746.47;;;10.45;100.00
24306;BME280;12423;48.768;8.850;2023-02-18T04:51:34;97746.47;;;10.45;100.00
24306;BME280;12423;48.768;8.850;2023-02-18T04:53:35;97748.84;;;10.37;100.00
24306;BME280;12423;48.768;8.850;2023-02-18T04:55:36;97749.53;;;10.28;100.00
24306;BME280;12423;48.768;8.850;2023-02-18T04:57:37;97754.09;;;10.26;100.00
24306;BME280;12423;48.768;8.850;2023-02-18T04:59:38;97746.31;;;10.23;100.00
24306;BME280;12423;48.768;8.850;2023-02-18T05:01:39;97743.75;;;10.34;100.00
24306;BME280;12423;48.768;8.850;2023-02-18T05:03:40;97743.09;;;10.30;100.00
24306;BME280;12423;48.768;8.850;2023-02-18T05:05:41;97746.91;;;10.39;100.00
24306;BME280;12423;48.768;8.850;2023-02-18T05:07:42;97737.72;;;10.43;100.00
24306;BME280;12423;48.768;8.850;2023-02-18T05:09:43;97741.69;;;10.38;100.00
24306;BME280;12423;48.768;8.850;2023-02-18T05:11:44;97746.06;;;10.39;100.00
24306;BME280;12423;48.768;8.850;2023-02-18T05:13:47;97752.03;;;10.42;100.00
24306;BME280;12423;48.768;8.850;2023-02-18T05:15:48;97752.41;;;10.25;100.00
24306;BME280;12423;48.768;8.850;2023-02-18T05:17:49;97742.34;;;10.41;100.00
24306;BME280;12423;48.768;8.850;2023-02-18T05:19:50;97745.00;;;10.41;100.00
24306;BME280;12423;48.768;8.850;2023-02-18T05:21:51;97740.41;;;10.30;100.00
24306;BME280;12423;48.768;8.850;2023-02-18T05:23:52;97735.56;;;10.48;100.00
24306;BME280;12423;48.768;8.850;2023-02-18T05:25:54;97742.34;;;10.41;100.00
24306;BME280;12423;48.768;8.850;2023-02-18T05:27:55;97745.44;;;10.35;100.00
24306;BME280;12423;48.768;8.850;2023-02-18T05:29:56;97742.25;;;10.30;100.00
24306;BME280;12423;48.768;8.850;2023-02-18T05:31:57;97732.41;;;10.30;100.00
24306;BME280;12423;48.768;8.850;2023-02-18T05:33:58;97741.19;;;10.57;100.00
24306;BME280;12423;48.768;8.850;2023-02-18T05:35:59;97745.47;;;10.59;100.00
24306;BME280;12423;48.768;8.850;2023-02-18T05:38:00;97737.44;;;10.59;100.00
24306;BME280;12423;48.768;8.850;2023-02-18T05:40:01;97735.63;;;10.60;100.00
24306;BME280;12423;48.768;8.850;2023-02-18T05:42:03;97740.22;;;10.58;100.00
24306;BME280;12423;48.768;8.850;2023-02-18T05:44:04;97733.28;;;10.55;100.00
24306;BME280;12423;48.768;8.850;2023-02-18T05:46:23;97739.84;;;10.51;100.00
24306;BME280;12423;48.768;8.850;2023-02-18T05:48:24;97730.66;;;10.42;100.00
24306;BME280;12423;48.768;8.850;2023-02-18T05:50:25;97730.44;;;10.45;100.00
24306;BME280;12423;48.768;8.850;2023-02-18T05:52:26;97739.16;;;10.36;100.00
24306;BME280;12423;48.768;8.850;2023-02-18T05:54:27;97732.41;;;10.30;100.00
24306;BME280;12423;48.768;8.850;2023-02-18T05:56:29;97730.66;;;10.42;100.00
24306;BME280;12423;48.768;8.850;2023-02-18T05:58:30;97730.84;;;10.52;100.00
24306;BME280;12423;48.768;8.850;2023-02-18T06:00:31;97741.69;;;10.62;100.00
24306;BME280;12423;48.768;8.850;2023-02-18T06:02:32;97738.09;;;10.74;100.00
24306;BME280;12423;48.768;8.850;2023-02-18T06:04:33;97736.88;;;10.78;100.00
24306;BME280;12423;48.768;8.850;2023-02-18T06:06:34;97738.13;;;10.85;100.00
24306;BME280;12423;48.768;8.850;2023-02-18T06:08:35;97733.53;;;10.87;100.00
24306;BME280;12423;48.768;8.850;2023-02-18T06:10:36;97725.53;;;10.99;100.00
24306;BME280;12423;48.768;8.850;2023-02-18T06:12:39;97723.44;;;10.91;100.00
24306;BME280;12423;48.768;8.850;2023-02-18T06:14:40;97720.16;;;10.87;100.00
24306;BME280;12423;48.768;8.850;2023-02-18T06:16:41;97724.63;;;10.87;100.00
24306;BME280;12423;48.768;8.850;2023-02-18T06:18:42;97719.41;;;10.85;100.00
24306;BME280;12423;48.768;8.850;2023-02-18T06:20:46;97729.16;;;10.98;100.00
24306;BME280;12423;48.768;8.850;2023-02-18T06:22:47;97716.66;;;10.98;100.00
24306;BME280;12423;48.768;8.850;2023-02-18T06:24:48;97714.47;;;11.03;100.00
24306;BME280;12423;48.768;8.850;2023-02-18T06:26:49;97712.19;;;10.99;100.00
24306;BME280;12423;48.768;8.850;2023-02-18T06:28:50;97712.03;;;11.00;100.00
24306;BME280;12423;48.768;8.850;2023-02-18T06:30:51;97713.59;;;10.92;100.00
24306;BME280;12423;48.768;8.850;2023-02-18T06:32:52;97727.19;;;10.88;100.00
24306;BME280;12423;48.768;8.850;2023-02-18T06:34:53;97715.06;;;10.96;100.00
24306;BME280;12423;48.768;8.850;2023-02-18T06:36:54;97724.56;;;11.00;100.00
24306;BME280;12423;48.768;8.850;2023-02-18T06:38:54;97717.78;;;11.18;100.00
24306;BME280;12423;48.768;8.850;2023-02-18T06:40:57;97709.75;;;11.18;100.00
24306;BME280;12423;48.768;8.850;2023-02-18T06:42:58;97727.28;;;11.22;100.00
24306;BME280;12423;48.768;8.850;2023-02-18T06:44:59;97724.13;;;11.17;100.00
24306;BME280;12423;48.768;8.850;2023-02-18T06:47:00;97729.34;;;11.19;100.00
24306;BME280;12423;48.768;8.850;2023-02-18T06:49:01;97724.84;;;11.19;100.00
24306;BME280;12423;48.768;8.850;2023-02-18T06:51:02;97740.38;;;11.14;100.00
24306;BME280;12423;48.768;8.850;2023-02-18T06:53:03;97731.41;;;11.27;100.00
24306;BME280;12423;48.768;8.850;2023-02-18T06:55:06;97733.47;;;11.23;100.00
24306;BME280;12423;48.768;8.850;2023-02-18T06:57:07;97729.59;;;11.27;100.00
24306;BME280;12423;48.768;8.850;2023-02-18T06:59:08;97724.50;;;11.35;100.00
24306;BME280;12423;48.768;8.850;2023-02-18T07:01:09;97726.06;;;11.38;100.00
24306;BME280;12423;48.768;8.850;2023-02-18T07:03:12;97719.50;;;11.31;100.00
24306;BME280;12423;48.768;8.850;2023-02-18T07:05:13;97732.03;;;11.30;100.00
24306;BME280;12423;48.768;8.850;2023-02-18T07:07:14;97728.38;;;11.31;100.00
24306;BME280;12423;48.768;8.850;2023-02-18T07:09:15;97736.03;;;11.36;100.00
24306;BME280;12423;48.768;8.850;2023-02-18T07:11:16;97742.22;;;11.36;100.00
24306;BME280;12423;48.768;8.850;2023-02-18T07:13:17;97740.16;;;11.40;100.00
24306;BME280;12423;48.768;8.850;2023-02-18T07:15:18;97725.47;;;11.46;100.00
24306;BME280;12423;48.768;8.850;2023-02-18T07:17:24;97709.31;;;11.47;100.00
24306;BME280;12423;48.768;8.850;2023-02-18T07:19:25;97712.22;;;11.44;100.00
24306;BME280;12423;48.768;8.850;2023-02-18T07:21:26;97714.16;;;11.42;100.00
24306;BME280;12423;48.768;8.850;2023-02-18T07:23:26;97704.56;;;11.51;100.00
24306;BME280;12423;48.768;8.850;2023-02-18T07:25:27;97721.69;;;11.48;100.00
24306;BME280;12423;48.768;8.850;2023-02-18T07:27:28;97708.66;;;11.55;100.00
24306;BME280;12423;48.768;8.850;2023-02-18T07:29:29;97706.63;;;11.47;100.00
24306;BME280;12423;48.768;8.850;2023-02-18T07:31:30;97711.97;;;11.58;100.00
24306;BME280;12423;48.768;8.850;2023-02-18T07:33:31;97704.19;;;11.67;100.00
24306;BME280;12423;48.768;8.850;2023-02-18T07:35:32;97698.44;;;11.71;100.00
24306;BME280;12423;48.768;8.850;2023-02-18T07:37:33;97701.75;;;11.75;100.00
24306;BME280;12423;48.768;8.850;2023-02-18T07:39:35;97706.34;;;11.73;100.00
24306;BME280;12423;48.768;8.850;2023-02-18T07:41:36;97704.19;;;11.78;100.00
24306;BME280;12423;48.768;8.850;2023-02-18T07:43:37;97709.31;;;11.70;100.00
24306;BME280;12423;48.768;8.850;2023-02-18T07:45:38;97697.38;;;11.74;100.00
24306;BME280;12423;48.768;8.850;2023-02-18T07:47:39;97695.53;;;11.74;100.00
24306;BME280;12423;48.768;8.850;2023-02-18T07:49:41;97703.69;;;11.73;100.00
24306;BME280;12423;48.768;8.850;2023-02-18T07:51:42;97689.94;;;11.77;100.00
24306;BME280;12423;48.768;8.850;2023-02-18T07:53:46;97688.13;;;11.78;100.00
24306;BME280;12423;48.768;8.850;2023-02-18T07:55:47;97706.72;;;11.79;100.00
24306;BME280;12423;48.768;8.850;2023-02-18T07:57:51;97701.88;;;11.73;100.00
24306;BME280;12423;48.768;8.850;2023-02-18T08:00:02;97706.81;;;11.89;100.00
24306;BME280;12423;48.768;8.850;2023-02-18T08:02:17;97702.94;;;11.82;100.00
24306;BME280;12423;48.768;8.850;2023-02-18T08:04:19;97708.78;;;11.87;100.00
24306;BME280;12423;48.768;8.850;2023-02-18T08:06:25;97705.13;;;11.88;100.00
24306;BME280;12423;48.768;8.850;2023-02-18T08:08:28;97690.41;;;11.83;100.00
24306;BME280;12423;48.768;8.850;2023-02-18T08:10:29;97700.50;;;11.79;100.00
24306;BME280;12423;48.768;8.850;2023-02-18T08:12:30;97698.69;;;11.79;100.00
24306;BME280;12423;48.768;8.850;2023-02-18T08:14:31;97696.88;;;11.80;100.00
24306;BME280;12423;48.768;8.850;2023-02-18T08:16:33;97697.84;;;11.79;100.00
24306;BME280;12423;48.768;8.850;2023-02-18T08:18:34;97698.84;;;11.78;100.00
24306;BME280;12423;48.768;8.850;2023-02-18T08:20:36;97704.94;;;11.91;100.00
24306;BME280;12423;48.768;8.850;2023-02-18T08:22:37;97710.13;;;11.82;100.00
24306;BME280;12423;48.768;8.850;2023-02-18T08:24:38;97705.63;;;11.82;100.00
24306;BME280;12423;48.768;8.850;2023-02-18T08:26:39;97702.09;;;11.82;100.00
24306;BME280;12423;48.768;8.850;2023-02-18T08:28:41;97700.28;;;11.82;100.00
24306;BME280;12423;48.768;8.850;2023-02-18T08:30:46;97696.63;;;11.83;100.00
24306;BME280;12423;48.768;8.850;2023-02-18T08:32:48;97694.19;;;11.80;100.00
24306;BME280;12423;48.768;8.850;2023-02-18T08:34:49;97690.81;;;11.78;100.00
24306;BME280;12423;48.768;8.850;2023-02-18T08:36:50;97688.59;;;11.83;100.00
24306;BME280;12423;48.768;8.850;2023-02-18T08:38:51;97687.13;;;11.79;100.00
24306;BME280;12423;48.768;8.850;2023-02-18T08:41:01;97692.59;;;11.77;100.00
24306;BME280;12423;48.768;8.850;2023-02-18T08:43:02;97686.66;;;11.85;100.00
24306;BME280;12423;48.768;8.850;2023-02-18T08:45:04;97687.13;;;11.90;100.00
24306;BME280;12423;48.768;8.850;2023-02-18T08:47:05;97685.94;;;11.83;100.00
24306;BME280;12423;48.768;8.850;2023-02-18T08:49:06;97692.97;;;11.84;100.00
24306;BME280;12423;48.768;8.850;2023-02-18T08:51:16;97690.41;;;11.83;100.00
24306;BME280;12423;48.768;8.850;2023-02-18T08:53:18;97685.81;;;11.85;100.00
24306;BME280;12423;48.768;8.850;2023-02-18T08:55:19;97710.38;;;11.78;100.00
24306;BME280;12423;48.768;8.850;2023-02-18T08:57:21;97681.06;;;11.77;100.00
24306;BME280;12423;48.768;8.850;2023-02-18T08:59:25;97676.91;;;11.84;100.00
24306;BME280;12423;48.768;8.850;2023-02-18T09:01:26;97677.38;;;11.89;100.00
24306;BME280;12423;48.768;8.850;2023-02-18T09:03:27;97665.84;;;12.00;100.00
24306;BME280;12423;48.768;8.850;2023-02-18T09:05:28;97667.03;;;12.07;100.00
24306;BME280;12423;48.768;8.850;2023-02-18T09:07:29;97666.16;;;12.18;100.00
24306;BME280;12423;48.768;8.850;2023-02-18T09:09:31;97675.38;;;12.25;100.00
24306;BME280;12423;48.768;8.850;2023-02-18T09:11:32;97662.44;;;12.30;100.00
24306;BME280;12423;48.768;8.850;2023-02-18T09:13:34;97647.31;;;12.41;100.00
24306;BME280;12423;48.768;8.850;2023-02-18T09:15:34;97641.09;;;12.61;100.00
24306;BME280;12423;48.768;8.850;2023-02-18T09:17:35;97648.06;;;12.64;100.00
24306;BME280;12423;48.768;8.850;2023-02-18T09:19:36;97648.56;;;12.79;100.00
24306;BME280;12423;48.768;8.850;2023-02-18T09:21:37;97646.16;;;12.76;100.00
24306;BME280;12423;48.768;8.850;2023-02-18T09:23:38;97647.09;;;12.53;100.00
24306;BME280;12423;48.768;8.850;2023-02-18T09:25:39;97658.69;;;12.54;100.00
24306;BME280;12423;48.768;8.850;2023-02-18T09:27:40;97648.03;;;12.43;100.00
24306;BME280;12423;48.768;8.850;2023-02-18T09:29:41;97653.19;;;12.34;100.00
24306;BME280;12423;48.768;8.850;2023-02-18T09:31:42;97642.53;;;12.44;100.00
24306;BME280;12423;48.768;8.850;2023-02-18T09:33:46;97639.94;;;12.54;100.00
24306;BME280;12423;48.768;8.850;2023-02-18T09:35:47;97642.22;;;12.38;100.00
24306;BME280;12423;48.768;8.850;2023-02-18T09:37:48;97641.03;;;12.51;100.00
24306;BME280;12423;48.768;8.850;2023-02-18T09:39:49;97644.09;;;12.47;100.00
24306;BME280;12423;48.768;8.850;2023-02-18T09:41:52;97646.72;;;12.58;100.00
24306;BME280;12423;48.768;8.850;2023-02-18T09:43:58;97655.34;;;12.62;100.00
24306;BME280;12423;48.768;8.850;2023-02-18T09:46:02;97638.03;;;12.66;100.00
24306;BME280;12423;48.768;8.850;2023-02-18T09:48:04;97653.66;;;12.61;100.00
24306;BME280;12423;48.768;8.850;2023-02-18T09:50:11;97648.44;;;12.59;100.00
24306;BME280;12423;48.768;8.850;2023-02-18T09:52:20;97648.81;;;12.54;100.00
24306;BME280;12423;48.768;8.850;2023-02-18T09:54:23;97652.34;;;12.55;100.00
24306;BME280;12423;48.768;8.850;2023-02-18T09:56:31;97646.66;;;12.69;100.00
24306;BME280;12423;48.768;8.850;2023-02-18T09:58:35;97666.00;;;12.73;100.00
24306;BME280;12423;48.768;8.850;2023-02-18T10:00:39;97658.16;;;12.60;100.00
24306;BME280;12423;48.768;8.850;2023-02-18T10:02:56;97666.06;;;12.62;100.00
24306;BME280;12423;48.768;8.850;2023-02-18T10:04:58;97672.22;;;12.52;100.00
24306;BME280;12423;48.768;8.850;2023-02-18T10:07:00;97667.13;;;12.49;100.00
24306;BME280;12423;48.768;8.850;2023-02-18T10:09:09;97667.13;;;12.49;100.00
24306;BME280;12423;48.768;8.850;2023-02-18T10:11:30;97640.91;;;12.53;100.00
24306;BME280;12423;48.768;8.850;2023-02-18T10:13:33;97649.47;;;12.47;100.00
24306;BME280;12423;48.768;8.850;2023-02-18T10:15:34;97657.25;;;12.50;100.00
24306;BME280;12423;48.768;8.850;2023-02-18T10:17:37;97646.31;;;12.42;100.00
24306;BME280;12423;48.768;8.850;2023-02-18T10:19:39;97645.31;;;12.54;100.00
24306;BME280;12423;48.768;8.850;2023-02-18T10:21:41;97669.88;;;12.59;100.00
24306;BME280;12423;48.768;8.850;2023-02-18T10:24:34;97643.53;;;12.64;100.00
24306;BME280;12423;48.768;8.850;2023-02-18T10:26:14;97655.22;;;12.63;100.00
24306;BME280;12423;48.768;8.850;2023-02-18T10:28:18;97667.28;;;12.69;100.00
24306;BME280;12423;48.768;8.850;2023-02-18T10:30:37;97674.97;;;12.62;100.00
24306;BME280;12423;48.768;8.850;2023-02-18T10:32:43;97679.09;;;12.66;100.00
24306;BME280;12423;48.768;8.850;2023-02-18T10:34:48;97669.81;;;12.70;100.00
24306;BME280;12423;48.768;8.850;2023-02-18T10:36:55;97671.06;;;12.66;100.00
24306;BME280;12423;48.768;8.850;2023-02-18T10:39:50;97680.56;;;12.70;100.00
24306;BME280;12423;48.768;8.850;2023-02-18T10:41:39;97683.13;;;12.82;100.00
24306;BME280;12423;48.768;8.850;2023-02-18T10:44:08;97676.41;;;12.87;100.00
24306;BME280;12423;48.768;8.850;2023-02-18T10:46:29;97673.75;;;12.87;100.00
24306;BME280;12423;48.768;8.850;2023-02-18T10:48:47;97680.13;;;12.96;100.00
24306;BME280;12423;48.768;8.850;2023-02-18T10:50:51;97669.03;;;12.80;100.00
24306;BME280;12423;48.768;8.850;2023-02-18T10:52:55;97659.94;;;12.71;100.00
24306;BME280;12423;48.768;8.850;2023-02-18T10:56:59;97652.47;;;12.75;100.00
24306;BME280;12423;48.768;8.850;2023-02-18T10:59:08;97653.41;;;12.64;100.00
24306;BME280;12423;48.768;8.850;2023-02-18T11:01:15;97660.78;;;12.71;100.00
24306;BME280;12423;48.768;8.850;2023-02-18T11:03:25;97659.31;;;12.79;100.00
24306;BME280;12423;48.768;8.850;2023-02-18T11:05:27;97647.06;;;12.86;100.00
24306;BME280;12423;48.768;8.850;2023-02-18T11:07:32;97637.50;;;12.93;100.00
24306;BME280;12423;48.768;8.850;2023-02-18T11:09:42;97647.31;;;12.83;100.00
24306;BME280;12423;48.768;8.850;2023-02-18T11:11:47;97637.50;;;12.93;100.00
24306;BME280;12423;48.768;8.850;2023-02-18T11:13:53;97632.06;;;13.04;100.00
24306;BME280;12423;48.768;8.850;2023-02-18T11:16:00;97646.84;;;12.99;100.00
24306;BME280;12423;48.768;8.850;2023-02-18T11:18:38;97626.50;;;12.96;99.47
24306;BME280;12423;48.768;8.850;2023-02-18T11:20:40;97620.94;;;13.09;99.77
24306;BME280;12423;48.768;8.850;2023-02-18T11:22:41;97627.91;;;13.21;100.00